Time;durP1;ratioP1;P1;durP2;ratioP2;P2;SDS_P1;SDS_P2;PMS_P1;PMS_P2;Temp;Humidity;BMP_temperature;BMP_pressure;BME280_temperature;BME280_humidity;BME280_pressure;Samples;Min_cycle;Max_cycle;Signal;HPM_P1;HPM_P2
2021/12/14 00:01:09;;;;;;;17.67;10.20;;;9.00;99.90;;;;;;4926469;29;20699;-71
2021/12/14 00:03:40;;;;;;;18.67;10.80;;;9.00;99.90;;;;;;4903628;29;20200;-73
2021/12/14 00:06:09;;;;;;;20.50;10.73;;;9.20;99.90;;;;;;4927030;29;20215;-71
2021/12/14 00:08:48;;;;;;;19.63;10.77;;;9.20;99.90;;;;;;4918724;29;20724;-71
2021/12/14 00:11:51;;;;;;;17.43;10.43;;;9.10;99.90;;;;;;4927907;29;20226;-71
2021/12/14 00:16:50;;;;;;;16.40;9.77;;;9.20;99.90;;;;;;4924866;29;20237;-69
2021/12/14 00:19:18;;;;;;;17.73;10.57;;;9.10;99.90;;;;;;4924189;29;20192;-71
2021/12/14 00:21:50;;;;;;;19.10;10.20;;;9.00;99.90;;;;;;4927465;29;20718;-71
2021/12/14 00:24:18;;;;;;;20.40;10.93;;;9.00;99.90;;;;;;4930531;29;20199;-71
2021/12/14 00:27:00;;;;;;;16.73;10.20;;;9.00;99.90;;;;;;4926351;29;20719;-71
2021/12/14 00:29:43;;;;;;;17.63;9.90;;;9.00;99.90;;;;;;4926312;29;20680;-72
2021/12/14 00:32:18;;;;;;;18.30;10.10;;;9.00;99.90;;;;;;4926165;29;20227;-71
2021/12/14 00:34:47;;;;;;;15.30;10.17;;;9.00;99.90;;;;;;4926763;29;20209;-71
2021/12/14 00:37:17;;;;;;;17.83;10.10;;;9.00;99.90;;;;;;4922098;29;20223;-71
2021/12/14 00:39:45;;;;;;;17.03;9.83;;;9.00;99.90;;;;;;4928859;29;20247;-71
2021/12/14 00:42:12;;;;;;;20.50;10.90;;;9.00;99.90;;;;;;4924798;29;20219;-72
2021/12/14 00:44:40;;;;;;;19.33;10.83;;;9.10;99.90;;;;;;4928690;29;20206;-73
2021/12/14 00:47:06;;;;;;;18.73;10.83;;;9.10;99.90;;;;;;4927112;29;20206;-71
2021/12/14 00:49:34;;;;;;;20.40;10.57;;;9.20;99.90;;;;;;4913089;29;20208;-71
2021/12/14 00:52:03;;;;;;;21.77;11.10;;;9.20;99.90;;;;;;4929917;29;20251;-71
2021/12/14 00:54:31;;;;;;;21.27;10.50;;;9.30;99.90;;;;;;4929557;29;20205;-75
2021/12/14 00:56:57;;;;;;;20.10;10.77;;;9.20;99.90;;;;;;4925511;29;20227;-72
2021/12/14 00:59:24;;;;;;;19.33;10.67;;;9.20;99.90;;;;;;4927898;29;20537;-71
2021/12/14 01:01:59;;;;;;;19.50;11.27;;;9.20;99.90;;;;;;4926688;29;20218;-72
2021/12/14 01:04:31;;;;;;;19.30;10.13;;;9.20;99.90;;;;;;4907306;29;20195;-71
2021/12/14 01:06:59;;;;;;;19.23;10.70;;;9.10;99.90;;;;;;4928871;29;20203;-71
2021/12/14 01:09:31;;;;;;;18.47;9.87;;;9.10;99.90;;;;;;4928631;29;20205;-71
2021/12/14 01:12:06;;;;;;;19.93;11.17;;;9.10;99.90;;;;;;4926057;29;20230;-71
2021/12/14 01:14:51;;;;;;;19.80;11.13;;;9.10;99.90;;;;;;4929469;29;20661;-71
2021/12/14 01:17:40;;;;;;;16.33;9.63;;;9.10;99.90;;;;;;4920281;29;21319;-71
2021/12/14 01:20:11;;;;;;;17.93;10.33;;;9.10;99.90;;;;;;4930934;29;20202;-71
2021/12/14 01:22:45;;;;;;;19.90;11.07;;;9.10;99.90;;;;;;4918868;29;20221;-74
2021/12/14 01:25:13;;;;;;;19.87;10.67;;;9.20;99.90;;;;;;4926331;29;20228;-73
2021/12/14 01:27:45;;;;;;;19.63;10.80;;;9.20;99.90;;;;;;4924917;29;20881;-72
2021/12/14 01:30:24;;;;;;;23.60;11.33;;;9.20;99.90;;;;;;4908152;29;20214;-72
2021/12/14 01:32:52;;;;;;;17.60;10.37;;;9.20;99.90;;;;;;4922223;29;20222;-71
2021/12/14 01:35:27;;;;;;;21.07;11.30;;;9.10;99.90;;;;;;4921194;29;20260;-71
2021/12/14 01:38:02;;;;;;;20.40;11.37;;;9.10;99.90;;;;;;4920700;29;20238;-71
2021/12/14 01:40:54;;;;;;;20.30;10.67;;;9.10;99.90;;;;;;4927544;29;20251;-72
2021/12/14 01:43:30;;;;;;;19.37;10.37;;;9.10;99.90;;;;;;4924035;29;20673;-72
2021/12/14 01:46:00;;;;;;;20.43;11.27;;;9.00;99.90;;;;;;4925307;29;20202;-72
2021/12/14 01:48:28;;;;;;;20.00;10.60;;;9.00;99.90;;;;;;4925173;29;20195;-71
2021/12/14 01:51:00;;;;;;;21.37;11.17;;;9.00;99.90;;;;;;4924327;29;20286;-73
2021/12/14 01:53:27;;;;;;;21.03;11.33;;;9.00;99.90;;;;;;4922479;29;20191;-71
2021/12/14 01:55:58;;;;;;;22.03;11.63;;;9.00;99.90;;;;;;4923823;29;20253;-71
2021/12/14 01:58:35;;;;;;;22.07;12.20;;;9.00;99.90;;;;;;4929096;29;20213;-72
2021/12/14 02:01:11;;;;;;;21.73;11.20;;;8.90;99.90;;;;;;4921317;29;20238;-71
2021/12/14 02:03:48;;;;;;;21.80;11.10;;;9.10;99.90;;;;;;4923867;29;20247;-73
2021/12/14 02:06:19;;;;;;;19.07;10.83;;;9.10;99.90;;;;;;4920719;29;20266;-71
2021/12/14 02:08:46;;;;;;;17.00;10.43;;;9.00;99.90;;;;;;4925915;29;20616;-71
2021/12/14 02:11:13;;;;;;;17.60;9.90;;;8.90;99.90;;;;;;4922954;29;20235;-73
2021/12/14 02:13:46;;;;;;;20.13;11.17;;;8.90;99.90;;;;;;4924195;29;20218;-70
2021/12/14 02:16:16;;;;;;;20.37;10.37;;;9.00;99.90;;;;;;4926466;29;20203;-71
2021/12/14 02:18:59;;;;;;;18.67;10.53;;;9.00;99.90;;;;;;4924698;29;20205;-71
2021/12/14 02:21:26;;;;;;;17.27;10.23;;;9.00;99.90;;;;;;4919474;29;20277;-74
2021/12/14 02:23:55;;;;;;;19.13;9.67;;;9.00;99.90;;;;;;4922017;29;20211;-71
2021/12/14 02:26:26;;;;;;;21.13;11.17;;;9.10;99.90;;;;;;4929028;29;20247;-71
2021/12/14 02:28:55;;;;;;;17.97;10.93;;;9.00;99.90;;;;;;4926241;29;20211;-71
2021/12/14 02:31:24;;;;;;;16.63;10.13;;;9.00;99.90;;;;;;4925613;29;20678;-73
2021/12/14 02:33:52;;;;;;;19.43;10.50;;;9.00;99.90;;;;;;4928382;29;20224;-71
2021/12/14 02:36:28;;;;;;;17.27;9.90;;;9.00;99.90;;;;;;4914045;29;20203;-71
2021/12/14 02:39:09;;;;;;;18.67;9.03;;;9.10;99.90;;;;;;4928119;29;20203;-71
2021/12/14 02:41:48;;;;;;;16.67;9.80;;;9.10;99.90;;;;;;4929261;29;20230;-70
2021/12/14 02:44:16;;;;;;;17.77;10.70;;;9.10;99.90;;;;;;4932717;29;20850;-73
2021/12/14 02:46:51;;;;;;;19.07;10.10;;;9.20;99.90;;;;;;4926348;29;20257;-71
2021/12/14 02:49:23;;;;;;;15.67;9.87;;;9.20;99.90;;;;;;4930365;29;20198;-71
2021/12/14 02:51:54;;;;;;;15.37;9.17;;;9.10;99.90;;;;;;4932033;29;20703;-71
2021/12/14 02:54:28;;;;;;;17.17;10.70;;;9.10;99.90;;;;;;4926264;29;20295;-71
2021/12/14 02:57:05;;;;;;;18.73;9.90;;;9.00;99.90;;;;;;4928128;29;20627;-72
2021/12/14 02:59:35;;;;;;;17.27;9.87;;;9.00;99.90;;;;;;4931634;29;20479;-71
2021/12/14 03:02:07;;;;;;;16.70;9.60;;;9.00;99.90;;;;;;4930242;29;20222;-71
2021/12/14 03:04:45;;;;;;;16.57;8.97;;;8.90;99.90;;;;;;4928635;29;20197;-70
2021/12/14 03:07:14;;;;;;;16.80;9.50;;;9.00;99.90;;;;;;4926359;29;20897;-71
2021/12/14 03:12:28;;;;;;;18.73;10.60;;;9.00;99.90;;;;;;4932089;29;20214;-71
2021/12/14 03:15:12;;;;;;;15.83;9.60;;;9.00;99.90;;;;;;4922411;29;20680;-73
2021/12/14 03:17:43;;;;;;;17.33;10.33;;;9.00;99.90;;;;;;4931001;29;20227;-71
2021/12/14 03:20:24;;;;;;;16.80;10.07;;;9.00;99.90;;;;;;4920122;29;20682;-72
2021/12/14 03:22:59;;;;;;;18.13;10.33;;;9.00;99.90;;;;;;4913976;29;20259;-73
2021/12/14 03:25:27;;;;;;;19.17;9.77;;;9.00;99.90;;;;;;4930122;29;20249;-71
2021/12/14 03:27:56;;;;;;;18.33;10.03;;;9.00;99.90;;;;;;4924262;29;20231;-72
2021/12/14 03:30:26;;;;;;;20.33;9.83;;;9.00;99.90;;;;;;4926519;29;20649;-71
2021/12/14 03:33:23;;;;;;;16.37;9.90;;;8.90;99.90;;;;;;4921871;29;20308;-72
2021/12/14 03:36:11;;;;;;;17.27;10.23;;;8.80;99.90;;;;;;4927920;29;20205;-73
2021/12/14 03:39:15;;;;;;;20.00;11.13;;;8.80;99.90;;;;;;4930860;29;20234;-73
2021/12/14 03:41:44;;;;;;;20.07;10.53;;;9.00;99.90;;;;;;4920316;29;20223;-71
2021/12/14 03:44:26;;;;;;;18.07;10.00;;;9.20;99.90;;;;;;4932999;29;20222;-71
2021/12/14 03:46:59;;;;;;;17.97;10.27;;;9.20;99.90;;;;;;4928834;29;20263;-71
2021/12/14 03:49:35;;;;;;;23.27;10.80;;;9.00;99.90;;;;;;4931021;29;20679;-71
2021/12/14 03:52:07;;;;;;;17.37;10.23;;;9.00;99.90;;;;;;4927472;29;20223;-74
2021/12/14 03:54:34;;;;;;;17.87;10.00;;;9.00;99.90;;;;;;4925189;29;20204;-69
2021/12/14 03:57:01;;;;;;;19.00;11.23;;;8.90;99.90;;;;;;4929168;29;20251;-71
2021/12/14 03:59:29;;;;;;;21.53;11.57;;;9.00;99.90;;;;;;4926314;29;20200;-73
2021/12/14 04:01:58;;;;;;;20.20;11.43;;;9.10;99.90;;;;;;4925685;29;20224;-73
2021/12/14 04:04:31;;;;;;;19.90;10.83;;;9.10;99.90;;;;;;4924478;29;20575;-70
2021/12/14 04:06:59;;;;;;;20.23;11.03;;;9.10;99.90;;;;;;4925827;29;20214;-71
2021/12/14 04:09:30;;;;;;;19.20;10.40;;;9.00;99.90;;;;;;4927014;29;20221;-71
2021/12/14 04:11:57;;;;;;;22.20;11.10;;;9.00;99.90;;;;;;4924690;29;20223;-72
2021/12/14 04:14:29;;;;;;;17.63;10.03;;;9.00;99.90;;;;;;4926270;29;20203;-71
2021/12/14 04:16:57;;;;;;;15.03;10.13;;;8.90;99.90;;;;;;4926165;29;20221;-71
2021/12/14 04:19:28;;;;;;;16.90;9.77;;;9.00;99.90;;;;;;4927687;29;20207;-71
2021/12/14 04:22:00;;;;;;;18.10;10.90;;;8.90;99.90;;;;;;4928554;29;20726;-73
2021/12/14 04:24:37;;;;;;;20.53;11.10;;;9.00;99.90;;;;;;4928754;29;20198;-74
2021/12/14 04:27:08;;;;;;;19.47;10.10;;;9.00;99.90;;;;;;4930599;29;20206;-72
2021/12/14 04:29:36;;;;;;;19.43;10.70;;;9.00;99.90;;;;;;4926679;29;20206;-70
2021/12/14 04:32:06;;;;;;;17.70;9.83;;;8.80;99.90;;;;;;4923189;29;20586;-71
2021/12/14 04:34:33;;;;;;;17.40;10.50;;;8.80;99.90;;;;;;4928765;29;20285;-73
2021/12/14 04:37:01;;;;;;;17.60;10.03;;;8.90;99.90;;;;;;4927505;29;20221;-72
2021/12/14 04:39:39;;;;;;;20.33;10.87;;;9.00;99.90;;;;;;4930900;29;20206;-71
2021/12/14 04:53:21;;;;;;;22.10;11.43;;;8.90;99.90;;;;;;4924471;29;20257;-73
2021/12/14 04:55:52;;;;;;;21.90;12.37;;;8.90;99.90;;;;;;4931893;29;20200;-71
2021/12/14 04:58:41;;;;;;;20.43;11.47;;;8.90;99.90;;;;;;4924103;29;20638;-71
2021/12/14 05:01:10;;;;;;;20.57;11.03;;;9.00;99.90;;;;;;4918167;29;20219;-71
2021/12/14 05:03:43;;;;;;;19.87;10.87;;;8.90;99.90;;;;;;4928881;29;20195;-72
2021/12/14 05:06:16;;;;;;;24.67;11.00;;;8.90;99.90;;;;;;4926742;29;20222;-74
2021/12/14 05:11:20;;;;;;;20.40;11.37;;;9.00;99.90;;;;;;4926643;29;20223;-71
2021/12/14 05:13:50;;;;;;;19.93;10.93;;;9.00;99.90;;;;;;4929750;29;20214;-73
2021/12/14 05:16:21;;;;;;;24.97;13.23;;;8.90;99.90;;;;;;4931140;29;20206;-72
2021/12/14 05:18:51;;;;;;;19.23;11.73;;;9.00;99.90;;;;;;4929777;29;20224;-71
2021/12/14 05:21:28;;;;;;;20.67;11.00;;;8.90;99.90;;;;;;4927972;29;20226;-71
2021/12/14 05:23:57;;;;;;;19.90;11.40;;;8.80;99.90;;;;;;4930184;29;20466;-72
2021/12/14 05:26:24;;;;;;;21.20;12.47;;;8.80;99.90;;;;;;4928893;29;20293;-71
2021/12/14 05:28:55;;;;;;;23.63;12.50;;;8.90;99.90;;;;;;4928930;29;20203;-71
2021/12/14 05:31:22;;;;;;;20.67;11.90;;;8.80;99.90;;;;;;4925113;29;20791;-71
2021/12/14 05:33:51;;;;;;;22.67;12.40;;;8.90;99.90;;;;;;4925347;29;20246;-73
2021/12/14 05:36:20;;;;;;;23.83;13.00;;;8.90;99.90;;;;;;4929401;29;20672;-71
2021/12/14 05:44:17;;;;;;;22.80;11.97;;;8.90;99.90;;;;;;4927129;29;20195;-71
2021/12/14 05:46:50;;;;;;;19.93;11.40;;;8.70;99.90;;;;;;4925716;29;20210;-71
2021/12/14 05:49:21;;;;;;;20.27;11.70;;;8.60;99.90;;;;;;4931202;29;20471;-72
2021/12/14 05:51:50;;;;;;;22.17;12.20;;;8.60;99.90;;;;;;4930429;29;20254;-72
2021/12/14 05:54:23;;;;;;;21.33;11.70;;;8.50;99.90;;;;;;4933573;29;20706;-73
2021/12/14 05:56:52;;;;;;;20.57;12.00;;;8.60;99.90;;;;;;4921841;29;20207;-72
2021/12/14 05:59:27;;;;;;;22.60;12.47;;;8.60;99.90;;;;;;4930469;29;20459;-71
2021/12/14 06:01:57;;;;;;;21.47;11.43;;;8.60;99.90;;;;;;4922683;29;20229;-73
2021/12/14 06:04:27;;;;;;;24.77;12.10;;;8.60;99.90;;;;;;4921345;29;20207;-74
2021/12/14 06:06:55;;;;;;;22.63;13.47;;;8.70;99.90;;;;;;4928028;29;20720;-71
2021/12/14 06:09:29;;;;;;;26.13;14.30;;;8.80;99.90;;;;;;4916604;29;20199;-72
2021/12/14 06:11:59;;;;;;;24.97;13.77;;;8.90;99.90;;;;;;4932437;29;20222;-71
2021/12/14 06:14:28;;;;;;;23.50;13.10;;;8.90;99.90;;;;;;4931234;29;20282;-73
2021/12/14 06:17:04;;;;;;;24.47;12.50;;;8.90;99.90;;;;;;4929259;29;20197;-71
2021/12/14 06:19:34;;;;;;;21.60;12.30;;;8.80;99.90;;;;;;4927648;29;20196;-72
2021/12/14 06:22:06;;;;;;;24.30;12.83;;;8.60;99.90;;;;;;4934190;29;20213;-73
2021/12/14 06:24:35;;;;;;;22.37;13.27;;;8.60;99.90;;;;;;4927277;29;20259;-71
2021/12/14 06:27:05;;;;;;;21.43;12.77;;;8.60;99.90;;;;;;4931629;29;20202;-72
2021/12/14 06:29:40;;;;;;;23.07;13.07;;;8.70;99.90;;;;;;4932694;29;20202;-71
2021/12/14 06:32:19;;;;;;;27.53;13.40;;;8.70;99.90;;;;;;4922551;29;20210;-73
2021/12/14 06:34:55;;;;;;;20.13;11.23;;;8.80;99.90;;;;;;4912647;29;20270;-72
2021/12/14 06:37:53;;;;;;;24.37;13.07;;;8.80;99.90;;;;;;4929956;29;20206;-72
2021/12/14 06:40:23;;;;;;;21.67;12.20;;;8.80;99.90;;;;;;4928366;29;20211;-73
2021/12/14 06:42:57;;;;;;;22.77;12.00;;;8.90;99.90;;;;;;4927792;29;20211;-74
2021/12/14 06:45:28;;;;;;;22.70;12.40;;;8.80;99.90;;;;;;4927876;29;20253;-73
2021/12/14 06:48:03;;;;;;;19.47;11.13;;;8.80;99.90;;;;;;4934302;29;20274;-73
2021/12/14 06:50:39;;;;;;;21.03;11.93;;;8.80;99.90;;;;;;4933447;29;20671;-73
2021/12/14 06:53:10;;;;;;;21.50;11.87;;;8.80;99.90;;;;;;4928052;29;20198;-73
2021/12/14 06:55:37;;;;;;;18.53;11.80;;;8.90;99.90;;;;;;4927295;29;20203;-73
2021/12/14 06:58:21;;;;;;;20.30;11.83;;;8.90;99.90;;;;;;4927661;29;21363;-73
2021/12/14 07:01:02;;;;;;;23.37;12.73;;;8.90;99.90;;;;;;4925982;29;20199;-73
2021/12/14 07:03:57;;;;;;;21.83;12.37;;;8.90;99.90;;;;;;4927748;29;20621;-73
2021/12/14 07:06:28;;;;;;;21.40;12.33;;;8.90;99.90;;;;;;4927489;29;20249;-73
2021/12/14 07:09:03;;;;;;;24.23;12.97;;;8.90;99.90;;;;;;4929617;29;20733;-75
2021/12/14 07:11:30;;;;;;;18.60;11.57;;;8.80;99.90;;;;;;4922123;29;20238;-74
2021/12/14 07:13:57;;;;;;;21.73;12.23;;;8.80;99.90;;;;;;4922358;29;20215;-76
2021/12/14 07:16:31;;;;;;;24.80;12.00;;;8.80;99.90;;;;;;4924610;29;20214;-73
2021/12/14 07:19:04;;;;;;;19.17;11.13;;;8.90;99.90;;;;;;4922686;29;20235;-73
2021/12/14 07:21:46;;;;;;;21.17;12.00;;;9.00;99.90;;;;;;4920854;29;20874;-72
2021/12/14 07:24:22;;;;;;;22.97;12.00;;;9.00;99.90;;;;;;4924183;29;20213;-72
2021/12/14 07:26:51;;;;;;;18.57;11.37;;;9.10;99.90;;;;;;4925288;29;20678;-73
2021/12/14 07:29:21;;;;;;;19.83;11.50;;;9.10;99.90;;;;;;4925938;29;20892;-75
2021/12/14 07:31:48;;;;;;;22.47;11.87;;;9.10;99.90;;;;;;4925374;29;20259;-74
2021/12/14 07:34:20;;;;;;;20.07;11.83;;;9.00;99.90;;;;;;4922906;29;20230;-73
2021/12/14 07:36:47;;;;;;;26.67;13.10;;;9.00;99.90;;;;;;4926279;29;20223;-73
2021/12/14 07:39:17;;;;;;;22.77;12.63;;;9.00;99.90;;;;;;4924454;29;20230;-72
2021/12/14 07:41:48;;;;;;;21.30;12.57;;;9.00;99.90;;;;;;4926757;29;20316;-75
2021/12/14 07:44:21;;;;;;;19.00;11.60;;;9.10;99.90;;;;;;4926232;29;20214;-73
2021/12/14 07:47:03;;;;;;;23.23;12.50;;;9.10;99.90;;;;;;4923213;29;20285;-72
2021/12/14 07:49:54;;;;;;;17.87;11.00;;;9.20;99.90;;;;;;4926353;29;20206;-72
2021/12/14 07:52:25;;;;;;;17.63;10.30;;;9.20;99.90;;;;;;4926973;29;20707;-71
2021/12/14 07:54:58;;;;;;;23.27;12.50;;;9.30;99.90;;;;;;4926761;29;20262;-71
2021/12/14 07:57:28;;;;;;;24.40;11.73;;;9.30;99.90;;;;;;4928359;29;20207;-71
2021/12/14 08:00:01;;;;;;;21.37;12.13;;;9.40;99.90;;;;;;4924506;29;20212;-71
2021/12/14 08:02:38;;;;;;;21.80;10.93;;;9.30;99.90;;;;;;4925173;29;20235;-75
2021/12/14 08:05:11;;;;;;;16.47;10.03;;;9.30;99.90;;;;;;4926377;29;20801;-72
2021/12/14 08:07:41;;;;;;;20.63;11.23;;;9.30;99.90;;;;;;4925035;29;20251;-73
2021/12/14 08:10:23;;;;;;;20.87;11.67;;;9.30;99.90;;;;;;4927725;29;20258;-73
2021/12/14 08:12:57;;;;;;;18.80;10.97;;;9.40;99.90;;;;;;4926643;29;20227;-72
2021/12/14 08:15:37;;;;;;;20.70;11.60;;;9.50;99.90;;;;;;4926612;29;20203;-74
2021/12/14 08:18:21;;;;;;;19.00;11.43;;;9.60;99.90;;;;;;4922120;29;20587;-69
2021/12/14 08:20:53;;;;;;;20.00;11.67;;;9.70;99.90;;;;;;4925377;29;20206;-73
2021/12/14 08:23:37;;;;;;;18.17;10.53;;;9.60;99.90;;;;;;4925907;29;20674;-71
2021/12/14 08:26:23;;;;;;;17.83;10.60;;;9.60;99.90;;;;;;4919260;29;20201;-72
2021/12/14 08:29:10;;;;;;;19.30;10.53;;;9.50;99.90;;;;;;4922399;29;20208;-71
2021/12/14 08:31:58;;;;;;;17.67;10.73;;;9.60;99.90;;;;;;4922397;29;20323;-72
2021/12/14 08:34:31;;;;;;;19.37;11.17;;;9.60;99.90;;;;;;4922717;29;20210;-71
2021/12/14 08:37:42;;;;;;;16.67;10.37;;;9.70;99.90;;;;;;4918767;29;20242;-74
2021/12/14 08:40:16;;;;;;;19.13;10.67;;;9.60;99.90;;;;;;4915243;29;20272;-72
2021/12/14 08:42:54;;;;;;;17.30;10.60;;;9.50;99.90;;;;;;4926098;29;20219;-73
2021/12/14 08:45:26;;;;;;;16.50;10.77;;;9.40;99.90;;;;;;4922842;29;20195;-72
2021/12/14 08:48:02;;;;;;;18.70;11.43;;;9.40;99.90;;;;;;4921867;29;20242;-72
2021/12/14 08:50:33;;;;;;;19.83;10.90;;;9.50;99.90;;;;;;4923836;29;20290;-72
2021/12/14 08:53:00;;;;;;;24.23;11.27;;;9.50;99.90;;;;;;4924389;29;20251;-72
2021/12/14 08:55:32;;;;;;;18.90;11.07;;;9.60;99.90;;;;;;4924081;29;20268;-70
2021/12/14 08:58:00;;;;;;;18.70;10.70;;;9.60;99.90;;;;;;4922734;29;20214;-71
2021/12/14 09:00:36;;;;;;;21.70;11.10;;;9.60;99.90;;;;;;4923085;29;20614;-71
2021/12/14 09:03:08;;;;;;;18.83;11.07;;;9.60;99.90;;;;;;4923812;29;20206;-73
2021/12/14 09:05:41;;;;;;;17.67;10.43;;;9.70;99.90;;;;;;4924497;29;20209;-72
2021/12/14 09:08:08;;;;;;;22.10;12.23;;;9.70;99.90;;;;;;4922929;29;20593;-72
2021/12/14 09:10:38;;;;;;;19.43;11.10;;;9.70;99.90;;;;;;4923227;29;20210;-72
2021/12/14 09:13:09;;;;;;;25.27;11.37;;;9.80;99.90;;;;;;4918234;29;20207;-70
2021/12/14 09:15:43;;;;;;;18.13;10.67;;;9.80;99.90;;;;;;4923766;29;20215;-72
2021/12/14 09:18:13;;;;;;;16.97;10.40;;;9.80;99.90;;;;;;4923987;29;20222;-70
2021/12/14 09:20:46;;;;;;;20.07;11.30;;;9.90;99.90;;;;;;4921043;29;20840;-71
2021/12/14 09:23:17;;;;;;;19.57;11.40;;;9.90;99.90;;;;;;4923160;29;21051;-73
2021/12/14 09:25:46;;;;;;;18.63;10.63;;;10.10;99.90;;;;;;4924565;29;20234;-72
2021/12/14 09:28:14;;;;;;;16.37;10.57;;;10.10;99.90;;;;;;4921716;29;20195;-70
2021/12/14 09:30:46;;;;;;;17.53;10.50;;;10.00;99.90;;;;;;4921046;29;20218;-74
2021/12/14 09:33:14;;;;;;;20.40;11.40;;;10.10;99.90;;;;;;4926267;29;20239;-70
2021/12/14 09:35:43;;;;;;;19.40;11.10;;;10.10;99.90;;;;;;4924740;29;20221;-74
2021/12/14 09:38:13;;;;;;;20.77;11.33;;;10.10;99.90;;;;;;4920542;29;21116;-72
2021/12/14 09:40:51;;;;;;;17.00;11.10;;;10.10;99.90;;;;;;4923230;29;20203;-71
2021/12/14 09:43:20;;;;;;;16.27;10.23;;;10.10;99.90;;;;;;4923748;29;20606;-71
2021/12/14 09:45:54;;;;;;;18.17;10.80;;;10.20;99.90;;;;;;4926694;29;20235;-75
2021/12/14 09:48:27;;;;;;;18.63;11.47;;;10.30;99.90;;;;;;4916646;29;21113;-72
2021/12/14 09:50:57;;;;;;;19.57;10.90;;;10.40;99.90;;;;;;4925354;29;20234;-73
2021/12/14 09:53:27;;;;;;;21.53;10.83;;;10.40;99.90;;;;;;4926067;29;20486;-71
2021/12/14 09:55:57;;;;;;;15.67;10.20;;;10.50;99.90;;;;;;4922279;29;20203;-72
2021/12/14 09:58:32;;;;;;;20.17;11.40;;;10.50;99.90;;;;;;4923839;29;20217;-73
2021/12/14 10:01:23;;;;;;;21.47;11.53;;;10.60;99.90;;;;;;4923514;29;21439;-71
2021/12/14 10:04:00;;;;;;;18.47;10.67;;;10.50;99.90;;;;;;4922179;29;20635;-72
2021/12/14 10:06:31;;;;;;;18.50;11.57;;;10.30;99.90;;;;;;4919579;29;20605;-72
2021/12/14 10:09:06;;;;;;;20.07;11.63;;;10.10;99.90;;;;;;4923826;29;20216;-68
2021/12/14 10:14:26;;;;;;;22.20;11.53;;;9.90;99.90;;;;;;4924559;29;20263;-71
2021/12/14 10:16:53;;;;;;;24.17;12.87;;;9.90;99.90;;;;;;4924292;29;20203;-71
2021/12/14 10:19:26;;;;;;;21.47;11.33;;;9.90;99.90;;;;;;4924334;29;20291;-71
2021/12/14 10:21:58;;;;;;;20.60;11.90;;;9.90;99.90;;;;;;4925016;29;20324;-72
2021/12/14 10:24:26;;;;;;;20.83;12.43;;;10.00;99.90;;;;;;4923861;29;20200;-72
2021/12/14 10:27:00;;;;;;;18.13;11.00;;;10.10;99.90;;;;;;4924831;29;20200;-72
2021/12/14 10:29:29;;;;;;;20.73;11.83;;;10.10;99.90;;;;;;4921534;29;20266;-75
2021/12/14 10:32:03;;;;;;;21.57;12.10;;;10.20;99.90;;;;;;4925231;29;20444;-72
2021/12/14 10:34:36;;;;;;;20.10;11.37;;;10.20;99.90;;;;;;4922902;29;20562;-74
2021/12/14 10:37:16;;;;;;;20.20;11.73;;;10.20;99.90;;;;;;4923559;29;20266;-74
2021/12/14 10:42:50;;;;;;;21.00;11.50;;;10.40;99.90;;;;;;4921436;29;20221;-69
2021/12/14 10:43:05;;;;;;;19.93;12.23;;;10.30;99.90;;;;;;4920131;29;20583;-72
2021/12/14 10:45:33;;;;;;;24.63;11.97;;;10.40;99.90;;;;;;4922032;29;20691;-73
2021/12/14 10:48:02;;;;;;;22.40;11.50;;;10.20;99.90;;;;;;4918557;29;20229;-71
2021/12/14 10:50:32;;;;;;;18.70;11.53;;;10.30;99.90;;;;;;4918891;29;20227;-71
2021/12/14 10:53:04;;;;;;;21.33;11.57;;;10.20;99.90;;;;;;4919016;29;20206;-72
2021/12/14 10:55:37;;;;;;;20.57;11.37;;;10.20;99.90;;;;;;4925207;29;20693;-74
2021/12/14 10:58:06;;;;;;;22.13;12.30;;;10.20;99.90;;;;;;4923723;29;20205;-74
2021/12/14 11:00:48;;;;;;;18.30;10.60;;;10.20;99.90;;;;;;4926316;29;20243;-74
2021/12/14 11:03:21;;;;;;;20.30;11.20;;;10.10;99.90;;;;;;4924924;29;21223;-71
2021/12/14 11:05:52;;;;;;;20.73;11.50;;;10.00;99.90;;;;;;4927877;29;20199;-73
2021/12/14 11:11:11;;;;;;;19.97;11.07;;;10.00;99.90;;;;;;4924904;29;20590;-71
2021/12/14 11:13:44;;;;;;;20.87;11.27;;;10.10;99.90;;;;;;4916609;29;20212;-75
2021/12/14 11:16:20;;;;;;;22.00;12.20;;;10.10;99.90;;;;;;4925289;29;20289;-72
2021/12/14 11:18:48;;;;;;;19.80;11.40;;;10.10;99.90;;;;;;4925830;29;20594;-74
2021/12/14 11:21:22;;;;;;;19.80;11.50;;;10.00;99.90;;;;;;4925012;29;20235;-69
2021/12/14 11:23:51;;;;;;;19.40;11.23;;;10.00;99.90;;;;;;4925547;29;20240;-69
2021/12/14 11:26:44;;;;;;;21.70;10.80;;;10.10;99.90;;;;;;4918167;29;20753;-72
2021/12/14 11:29:15;;;;;;;23.50;11.33;;;10.20;99.90;;;;;;4926852;29;20209;-72
2021/12/14 11:31:51;;;;;;;19.90;11.20;;;10.10;99.90;;;;;;4912668;29;20234;-72
2021/12/14 11:34:35;;;;;;;22.10;11.80;;;10.20;99.90;;;;;;4919605;29;20210;-75
2021/12/14 11:37:08;;;;;;;17.33;10.83;;;10.20;99.90;;;;;;4927102;29;20217;-74
2021/12/14 11:39:38;;;;;;;21.17;11.40;;;10.10;99.90;;;;;;4920562;29;20728;-75
2021/12/14 11:42:26;;;;;;;18.47;11.00;;;10.20;99.90;;;;;;4924276;29;20213;-73
2021/12/14 11:45:07;;;;;;;19.47;11.03;;;10.20;99.90;;;;;;4921866;29;20224;-72
2021/12/14 11:50:19;;;;;;;17.53;10.80;;;10.10;99.90;;;;;;4918688;29;20222;-72
2021/12/14 11:53:07;;;;;;;20.03;10.83;;;10.10;99.90;;;;;;4927111;29;20229;-76
2021/12/14 11:55:50;;;;;;;18.03;10.93;;;10.20;99.90;;;;;;4924155;29;20206;-72
2021/12/14 11:58:24;;;;;;;19.87;11.10;;;10.20;99.90;;;;;;4926080;29;20276;-74
2021/12/14 12:01:15;;;;;;;18.73;11.00;;;10.10;99.90;;;;;;4924681;29;20227;-72
2021/12/14 12:03:49;;;;;;;16.00;9.47;;;10.00;99.90;;;;;;4919246;29;20598;-73
2021/12/14 12:09:32;;;;;;;19.07;10.80;;;10.10;99.90;;;;;;4924897;29;20209;-73
2021/12/14 12:12:05;;;;;;;19.37;11.50;;;10.10;99.90;;;;;;4920635;29;20241;-73
2021/12/14 12:14:53;;;;;;;17.97;10.27;;;10.30;99.90;;;;;;4921637;29;20210;-73
2021/12/14 12:17:40;;;;;;;18.40;10.70;;;10.40;99.90;;;;;;4922185;29;20250;-72
2021/12/14 12:20:46;;;;;;;15.47;8.60;;;10.60;99.90;;;;;;4922594;29;20233;-70
2021/12/14 12:23:16;;;;;;;17.47;8.87;;;10.80;99.90;;;;;;4923833;29;20212;-72
2021/12/14 12:25:45;;;;;;;14.83;8.17;;;10.80;99.90;;;;;;4923427;29;20234;-72
2021/12/14 12:28:17;;;;;;;14.80;8.07;;;10.80;99.90;;;;;;4921587;29;20252;-72
2021/12/14 12:30:50;;;;;;;15.23;7.90;;;10.80;99.90;;;;;;4919535;29;20217;-72
2021/12/14 12:33:19;;;;;;;10.70;6.30;;;10.70;99.90;;;;;;4915056;29;20313;-74
2021/12/14 12:36:12;;;;;;;11.63;5.90;;;10.70;99.90;;;;;;4916895;29;20213;-73
2021/12/14 12:38:52;;;;;;;7.97;4.70;;;10.60;99.90;;;;;;4923262;29;20209;-75
2021/12/14 12:41:44;;;;;;;8.97;4.90;;;10.50;99.90;;;;;;4921324;29;20224;-73
2021/12/14 12:44:23;;;;;;;7.33;4.13;;;10.70;99.90;;;;;;4918657;29;20221;-72
2021/12/14 12:47:09;;;;;;;7.40;4.43;;;10.50;99.90;;;;;;4919672;29;20216;-72
2021/12/14 12:49:45;;;;;;;9.63;5.10;;;10.50;99.90;;;;;;4921028;29;20203;-72
2021/12/14 12:52:12;;;;;;;8.30;4.37;;;10.60;99.90;;;;;;4920420;29;20240;-75
2021/12/14 12:54:47;;;;;;;5.83;3.40;;;10.60;99.90;;;;;;4915870;29;20225;-73
2021/12/14 12:57:23;;;;;;;7.27;3.90;;;10.40;99.90;;;;;;4920912;29;20211;-72
2021/12/14 13:00:09;;;;;;;7.50;4.10;;;10.40;99.90;;;;;;4915933;29;20790;-74
2021/12/14 13:03:13;;;;;;;6.67;3.50;;;10.40;99.90;;;;;;4917316;29;20223;-70
2021/12/14 13:05:46;;;;;;;7.23;3.73;;;10.30;99.90;;;;;;4923656;29;20206;-73
2021/12/14 13:08:33;;;;;;;6.67;4.10;;;10.40;99.90;;;;;;4921247;29;20214;-72
2021/12/14 13:11:03;;;;;;;7.50;3.63;;;10.30;99.90;;;;;;4920857;29;20236;-71
2021/12/14 13:13:34;;;;;;;5.83;3.10;;;10.20;99.90;;;;;;4924918;29;20314;-71
2021/12/14 13:16:06;;;;;;;9.30;3.97;;;10.30;99.90;;;;;;4924188;29;20207;-73
2021/12/14 13:18:52;;;;;;;6.13;3.57;;;10.40;99.90;;;;;;4920573;29;20681;-71
2021/12/14 13:22:05;;;;;;;5.13;2.37;;;10.50;99.90;;;;;;4922166;29;20302;-74
2021/12/14 13:24:32;;;;;;;5.03;2.97;;;10.20;99.90;;;;;;4914570;29;20230;-72
2021/12/14 13:27:17;;;;;;;5.23;3.20;;;10.10;99.90;;;;;;4918289;29;20200;-72
2021/12/14 13:29:53;;;;;;;3.50;2.33;;;10.10;99.90;;;;;;4917487;29;20207;-72
2021/12/14 13:32:33;;;;;;;4.23;2.50;;;10.10;99.90;;;;;;4924292;29;20224;-73
2021/12/14 13:35:24;;;;;;;6.43;2.50;;;10.00;99.90;;;;;;4919595;29;20212;-73
2021/12/14 13:37:57;;;;;;;4.67;2.60;;;10.00;99.90;;;;;;4916331;29;20204;-71
2021/12/14 13:40:26;;;;;;;5.03;2.60;;;10.00;99.90;;;;;;4923543;29;20231;-72
2021/12/14 13:43:20;;;;;;;4.47;2.23;;;10.00;99.90;;;;;;4921363;29;20231;-73
2021/12/14 13:45:53;;;;;;;4.97;2.63;;;9.90;99.90;;;;;;4920403;29;20212;-72
2021/12/14 13:48:26;;;;;;;7.23;3.00;;;9.90;99.90;;;;;;4921293;29;20687;-71